Terminal Aerodrome Forecast
Issued by NWS Melbourne, FL

Home | Current Version | Previous Version | Text Only | Print | Product List | Glossary On
Versions: 1 2 3 4 5 6 7 8 9 10 11 12 13 14 15 16 17 18 19 20 21
000
FTUS42 KMLB 181944 AAC
TAFDAB
TAF AMD
KDAB 181944Z 1820/1918 06011KT P6SM SCT005
     FM190000 05004KT P6SM FEW035
     FM190900 10003KT 3SM BR SCT008
      TEMPO 1909/1912 1SM BR SCT003
     FM191500 11007KT P6SM FEW025=

USA.gov is the U.S. government's official web portal to all federal, state and local government web resources and services.